createdAt,value
2019-01-10T00:01:46.385Z,35.36
2019-01-10T00:04:12.250Z,35.46
2019-01-10T00:06:39.034Z,35.83
2019-01-10T00:09:05.315Z,35.99
2019-01-10T00:11:31.196Z,35.98
2019-01-10T00:13:57.068Z,36.11
2019-01-10T00:16:22.938Z,35.99
2019-01-10T00:18:48.868Z,35.51
2019-01-10T00:21:14.734Z,35.00
2019-01-10T00:23:40.616Z,35.01
2019-01-10T00:26:06.477Z,35.12
2019-01-10T00:28:32.356Z,35.01
2019-01-10T00:30:58.225Z,35.44
2019-01-10T00:33:24.141Z,35.67
2019-01-10T00:35:50.054Z,35.27
2019-01-10T00:38:15.917Z,34.89
2019-01-10T00:40:41.907Z,34.32
2019-01-10T00:43:07.807Z,34.26
2019-01-10T00:45:34.014Z,34.45
2019-01-10T00:48:01.170Z,34.75
2019-01-10T00:50:27.026Z,34.75
2019-01-10T00:52:53.043Z,34.64
2019-01-10T00:55:18.928Z,35.08
2019-01-10T00:57:44.818Z,35.51
2019-01-10T01:00:16.645Z,35.63
2019-01-10T01:02:42.629Z,35.61
2019-01-10T01:05:10.656Z,35.61
2019-01-10T01:07:36.560Z,35.55
2019-01-10T01:10:08.830Z,35.55
2019-01-10T01:12:34.727Z,35.82
2019-01-10T01:15:00.602Z,36.03
2019-01-10T01:17:26.476Z,36.28
2019-01-10T01:19:52.368Z,36.07
2019-01-10T01:22:18.344Z,35.91
2019-01-10T01:24:44.200Z,35.93
2019-01-10T01:27:10.052Z,35.60
2019-01-10T01:29:35.934Z,35.85
2019-01-10T01:32:01.803Z,35.95
2019-01-10T01:34:27.670Z,35.71
2019-01-10T01:36:53.554Z,35.80
2019-01-10T01:39:19.569Z,36.13
2019-01-10T01:41:45.452Z,35.88
2019-01-10T01:44:11.317Z,35.88
2019-01-10T01:46:37.405Z,35.74
2019-01-10T01:49:03.905Z,35.41
2019-01-10T01:51:29.911Z,35.95
2019-01-10T01:53:55.760Z,36.57
2019-01-10T01:56:21.640Z,37.07
2019-01-10T01:58:47.500Z,37.32
2019-01-10T02:01:13.687Z,37.60
2019-01-10T02:03:39.603Z,38.52
2019-01-10T02:06:05.474Z,38.52
2019-01-10T02:08:31.355Z,38.42
2019-01-10T02:10:57.352Z,39.08
2019-01-10T02:13:23.247Z,38.79
2019-01-10T02:15:49.109Z,38.79
2019-01-10T02:18:14.986Z,39.16
2019-01-10T02:20:40.852Z,39.09
2019-01-10T02:23:06.710Z,39.24
2019-01-10T02:25:32.677Z,38.19
2019-01-10T02:27:58.596Z,38.22
2019-01-10T02:30:24.577Z,38.22
2019-01-10T02:32:50.491Z,38.38
2019-01-10T02:35:16.439Z,38.66
2019-01-10T02:37:42.380Z,39.02
2019-01-10T02:40:08.359Z,38.45
2019-01-10T02:42:34.395Z,38.45
2019-01-10T02:45:00.265Z,38.13
2019-01-10T02:47:26.283Z,37.88
2019-01-10T02:49:52.563Z,37.87
2019-01-10T02:52:18.417Z,38.13
2019-01-10T02:54:44.281Z,38.05
2019-01-10T02:57:10.201Z,38.36
2019-01-10T02:59:36.071Z,38.71
2019-01-10T03:02:02.255Z,38.58
2019-01-10T03:04:28.181Z,38.94
2019-01-10T03:06:54.091Z,39.19
2019-01-10T03:09:20.121Z,39.11
2019-01-10T03:11:45.991Z,39.28
2019-01-10T03:14:11.967Z,39.27
2019-01-10T03:16:37.861Z,38.90
2019-01-10T03:19:03.776Z,38.45
2019-01-10T03:21:29.632Z,38.54
2019-01-10T03:23:55.556Z,38.96
2019-01-10T03:26:21.433Z,39.24
2019-01-10T03:28:47.293Z,39.07
2019-01-10T03:31:13.239Z,38.59
2019-01-10T03:33:39.162Z,38.36
2019-01-10T03:36:05.010Z,38.51
2019-01-10T03:38:30.902Z,39.10
2019-01-10T03:40:56.825Z,39.13
2019-01-10T03:43:22.735Z,39.10
2019-01-10T03:45:48.589Z,38.82
2019-01-10T03:48:15.054Z,39.19
2019-01-10T03:50:41.802Z,39.38
2019-01-10T03:53:07.732Z,39.01
2019-01-10T03:55:33.594Z,38.69
2019-01-10T03:57:59.584Z,39.19
2019-01-10T04:00:25.508Z,39.29
2019-01-10T04:02:51.403Z,39.68
2019-01-10T04:05:17.311Z,40.35
2019-01-10T04:07:43.202Z,39.60
2019-01-10T04:10:10.868Z,39.44
2019-01-10T04:12:36.859Z,39.59
2019-01-10T04:15:04.472Z,39.72
2019-01-10T04:17:30.435Z,39.92
2019-01-10T04:19:56.326Z,39.67
2019-01-10T04:22:22.279Z,39.81
2019-01-10T04:24:48.197Z,39.59
2019-01-10T04:27:14.071Z,40.02
2019-01-10T04:29:39.934Z,39.93
2019-01-10T04:32:05.862Z,39.93
2019-01-10T04:34:31.739Z,40.00
2019-01-10T04:36:57.776Z,40.68
2019-01-10T04:39:23.669Z,41.60
2019-01-10T04:41:49.567Z,40.18
2019-01-10T04:44:15.445Z,39.83
2019-01-10T04:46:41.350Z,39.93
2019-01-10T04:49:07.386Z,39.49
2019-01-10T04:51:34.015Z,39.40
2019-01-10T04:53:59.901Z,39.51
2019-01-10T04:56:25.890Z,39.86
2019-01-10T04:58:51.782Z,39.40
2019-01-10T05:01:17.658Z,39.64
2019-01-10T05:03:43.658Z,39.05
2019-01-10T05:06:09.536Z,38.84
2019-01-10T05:08:35.394Z,38.82
2019-01-10T05:11:01.384Z,38.62
2019-01-10T05:13:27.255Z,39.05
2019-01-10T05:15:53.161Z,39.35
2019-01-10T05:18:19.018Z,39.86
2019-01-10T05:20:46.000Z,39.74
2019-01-10T05:23:12.150Z,40.09
2019-01-10T05:25:38.178Z,40.03
2019-01-10T05:28:04.078Z,39.31
2019-01-10T05:30:29.975Z,39.39
2019-01-10T05:32:55.870Z,39.06
2019-01-10T05:35:21.733Z,39.34
2019-01-10T05:37:47.730Z,38.29
2019-01-10T05:40:13.623Z,38.01
2019-01-10T05:42:39.525Z,38.48
2019-01-10T05:45:08.898Z,38.58
2019-01-10T05:47:34.776Z,38.69
2019-01-10T05:50:01.436Z,38.90
2019-01-10T05:52:28.526Z,38.84
2019-01-10T05:54:54.422Z,39.16
2019-01-10T05:57:20.397Z,38.96
2019-01-10T05:59:46.276Z,39.27
2019-01-10T06:02:12.177Z,39.14
2019-01-10T06:04:38.058Z,39.11
2019-01-10T06:07:03.973Z,39.52
2019-01-10T06:09:31.752Z,38.66
2019-01-10T06:11:57.662Z,38.46
2019-01-10T06:14:23.557Z,39.27
2019-01-10T06:16:49.444Z,39.37
2019-01-10T06:19:15.313Z,39.62
2019-01-10T06:21:41.182Z,39.98
2019-01-10T06:24:07.054Z,39.59
2019-01-10T06:26:32.946Z,39.99
2019-01-10T06:28:58.834Z,39.70
2019-01-10T06:31:24.843Z,38.96
2019-01-10T06:33:50.736Z,39.56
2019-01-10T06:36:16.614Z,39.13
2019-01-10T06:38:42.589Z,39.12
2019-01-10T06:41:08.490Z,39.32
2019-01-10T06:43:34.535Z,39.14
2019-01-10T06:46:00.396Z,39.56
2019-01-10T06:48:26.288Z,40.08
2019-01-10T06:50:52.840Z,40.38
2019-01-10T06:53:19.356Z,40.14
2019-01-10T06:55:45.235Z,40.08
2019-01-10T06:58:11.229Z,39.94
2019-01-10T07:00:37.108Z,40.00
2019-01-10T07:03:03.008Z,39.96
2019-01-10T07:05:28.978Z,40.59
2019-01-10T07:07:56.734Z,40.47
2019-01-10T07:10:24.719Z,40.92
2019-01-10T07:12:50.688Z,41.15
2019-01-10T07:15:16.551Z,41.21
2019-01-10T07:17:42.499Z,40.93
2019-01-10T07:20:09.592Z,40.86
2019-01-10T07:22:41.997Z,40.74
2019-01-10T07:25:07.893Z,40.67
2019-01-10T07:27:33.735Z,40.28
2019-01-10T07:29:59.913Z,40.53
2019-01-10T07:32:25.866Z,40.81
2019-01-10T07:34:55.550Z,40.40
2019-01-10T07:37:21.402Z,40.40
2019-01-10T07:39:47.295Z,39.89
2019-01-10T07:42:13.157Z,39.56
2019-01-10T07:44:39.040Z,38.92
2019-01-10T07:47:04.927Z,38.85
2019-01-10T07:49:30.800Z,38.84
2019-01-10T07:51:57.150Z,39.10
2019-01-10T07:54:23.704Z,38.96
2019-01-10T07:56:49.586Z,38.95
2019-01-10T07:59:15.431Z,38.55
2019-01-10T08:01:41.334Z,38.80
2019-01-10T08:04:07.244Z,39.29
2019-01-10T08:06:33.110Z,39.52
2019-01-10T08:08:59.081Z,39.86
2019-01-10T08:11:25.015Z,39.69
2019-01-10T08:13:50.911Z,39.06
2019-01-10T08:16:16.757Z,39.35
2019-01-10T08:18:42.627Z,39.43
2019-01-10T08:21:08.519Z,39.45
2019-01-10T08:23:34.387Z,39.19
2019-01-10T08:26:00.270Z,39.23
2019-01-10T08:28:26.123Z,38.36
2019-01-10T08:30:52.107Z,38.24
2019-01-10T08:33:18.035Z,38.77
2019-01-10T08:35:43.894Z,38.55
2019-01-10T08:38:09.770Z,38.38
2019-01-10T08:40:35.630Z,38.04
2019-01-10T08:43:01.528Z,37.93
2019-01-10T08:45:27.519Z,37.62
2019-01-10T08:47:53.505Z,37.39
2019-01-10T08:50:21.392Z,37.24
2019-01-10T08:52:47.404Z,37.29
2019-01-10T08:55:13.528Z,36.89
2019-01-10T08:57:39.407Z,37.20
2019-01-10T09:00:11.945Z,37.38
2019-01-10T09:02:37.870Z,37.33
2019-01-10T09:05:04.037Z,37.43
2019-01-10T09:07:29.925Z,37.57
2019-01-10T09:09:55.835Z,37.42
2019-01-10T09:12:21.797Z,37.12
2019-01-10T09:14:47.638Z,37.32
2019-01-10T09:17:13.547Z,37.63
2019-01-10T09:19:39.416Z,37.04
2019-01-10T09:22:05.266Z,36.60
2019-01-10T09:24:31.250Z,36.13
2019-01-10T09:26:57.148Z,35.98
2019-01-10T09:29:23.013Z,35.84
2019-01-10T09:31:48.888Z,35.59
2019-01-10T09:34:14.737Z,34.50
2019-01-10T09:36:40.639Z,33.46
2019-01-10T09:39:06.628Z,33.36
2019-01-10T09:41:32.617Z,33.18
2019-01-10T09:43:58.628Z,33.01
2019-01-10T09:46:24.529Z,32.76
2019-01-10T09:48:50.414Z,32.54
2019-01-10T09:51:16.284Z,31.97
2019-01-10T09:53:42.668Z,32.12
2019-01-10T09:56:08.891Z,31.98
2019-01-10T09:58:34.891Z,31.34
2019-01-10T10:01:01.748Z,30.47
2019-01-10T10:03:27.644Z,30.69
2019-01-10T10:05:53.502Z,30.55
2019-01-10T10:08:19.378Z,30.40
2019-01-10T10:10:45.257Z,30.85
2019-01-10T10:13:11.126Z,30.46
2019-01-10T10:15:36.977Z,30.12
2019-01-10T10:18:02.844Z,30.75
2019-01-10T10:20:28.804Z,32.22
2019-01-10T10:22:54.680Z,31.44
2019-01-10T10:25:20.586Z,31.87
2019-01-10T10:27:46.448Z,31.42
2019-01-10T10:30:17.472Z,31.12
2019-01-10T10:32:43.412Z,30.39
2019-01-10T10:35:09.238Z,30.06
2019-01-10T10:37:35.165Z,29.26
2019-01-10T10:40:02.251Z,29.25
2019-01-10T10:42:28.138Z,29.21
2019-01-10T10:44:54.097Z,29.10
2019-01-10T10:47:19.972Z,27.83
2019-01-10T10:49:45.824Z,27.08
2019-01-10T10:52:12.603Z,27.67
2019-01-10T10:54:38.999Z,28.37
2019-01-10T10:57:05.467Z,29.00
2019-01-10T10:59:31.362Z,28.31
2019-01-10T11:01:57.220Z,27.68
2019-01-10T11:04:23.103Z,27.43
2019-01-10T11:06:48.980Z,27.54
2019-01-10T11:09:14.933Z,27.56
2019-01-10T11:11:40.866Z,27.43
2019-01-10T11:14:06.828Z,26.74
2019-01-10T11:16:32.704Z,27.31
2019-01-10T11:18:58.567Z,27.56
2019-01-10T11:21:24.486Z,27.79
2019-01-10T11:23:50.344Z,27.78
2019-01-10T11:26:16.259Z,27.39
2019-01-10T11:28:42.138Z,27.14
2019-01-10T11:31:07.999Z,27.38
2019-01-10T11:33:34.034Z,24.61
2019-01-10T11:35:59.931Z,25.66
2019-01-10T11:38:25.783Z,24.40
2019-01-10T11:40:51.651Z,24.68
2019-01-10T11:43:17.516Z,24.80
2019-01-10T11:45:43.383Z,24.02
2019-01-10T11:48:09.245Z,24.50
2019-01-10T11:50:35.149Z,24.43
2019-01-10T11:53:01.002Z,23.70
2019-01-10T11:55:27.023Z,23.45
2019-01-10T11:57:53.467Z,23.47
2019-01-10T12:00:27.048Z,23.64
2019-01-10T12:02:52.911Z,23.77
2019-01-10T12:05:18.790Z,23.78
2019-01-10T12:07:44.812Z,24.03
2019-01-10T12:10:10.671Z,24.51
2019-01-10T12:12:36.569Z,23.93
2019-01-10T12:15:04.150Z,23.31
2019-01-10T12:17:31.205Z,23.74
2019-01-10T12:19:57.182Z,24.31
2019-01-10T12:22:23.045Z,23.10
2019-01-10T12:24:48.940Z,23.34
2019-01-10T12:27:14.814Z,23.47
2019-01-10T12:29:40.693Z,23.61
2019-01-10T12:32:06.559Z,23.61
2019-01-10T12:34:32.458Z,23.77
2019-01-10T12:37:00.555Z,24.29
2019-01-10T12:39:26.165Z,24.17
2019-01-10T12:41:52.035Z,24.10
2019-01-10T12:44:17.919Z,24.16
2019-01-10T12:46:43.786Z,24.00
2019-01-10T12:49:11.539Z,23.27
2019-01-10T12:51:37.559Z,22.99
2019-01-10T12:54:03.435Z,23.22
2019-01-10T12:56:29.424Z,23.26
2019-01-10T12:58:55.803Z,23.50
2019-01-10T13:01:21.656Z,22.14
2019-01-10T13:03:47.569Z,19.48
2019-01-10T13:06:13.434Z,18.50
2019-01-10T13:08:39.308Z,18.78
2019-01-10T13:11:05.306Z,18.98
2019-01-10T13:13:31.189Z,18.53
2019-01-10T13:15:57.072Z,18.74
2019-01-10T13:18:22.962Z,18.74
2019-01-10T13:20:48.871Z,17.99
2019-01-10T13:23:14.736Z,21.74
2019-01-10T13:25:40.602Z,22.24
2019-01-10T13:28:06.471Z,23.52
2019-01-10T13:30:32.358Z,24.04
2019-01-10T13:32:58.207Z,24.23
2019-01-10T13:35:24.269Z,24.96
2019-01-10T13:37:50.195Z,25.84
2019-01-10T13:40:16.192Z,26.45
2019-01-10T13:42:42.081Z,26.48
2019-01-10T13:45:12.491Z,26.60
2019-01-10T13:47:38.341Z,26.68
2019-01-10T13:50:11.301Z,26.96
2019-01-10T13:52:35.786Z,27.08
2019-01-10T13:55:02.074Z,27.70
2019-01-10T13:57:28.221Z,27.62
2019-01-10T13:59:56.047Z,27.82
2019-01-10T14:02:21.917Z,27.75
2019-01-10T14:04:47.817Z,27.61
2019-01-10T14:07:13.689Z,26.81
2019-01-10T14:09:39.570Z,26.56
2019-01-10T14:12:05.441Z,26.41
2019-01-10T14:14:31.298Z,26.28
2019-01-10T14:17:01.609Z,26.02
2019-01-10T14:19:24.966Z,25.86
2019-01-10T14:21:50.802Z,26.04
2019-01-10T14:24:16.662Z,26.25
2019-01-10T14:26:42.547Z,25.69
2019-01-10T14:29:08.464Z,25.90
2019-01-10T14:31:34.338Z,25.56
2019-01-10T14:34:00.189Z,25.66
2019-01-10T14:36:26.190Z,25.69
2019-01-10T14:38:52.057Z,25.03
2019-01-10T14:41:18.047Z,24.83
2019-01-10T14:43:43.923Z,24.82
2019-01-10T14:46:09.816Z,24.74
2019-01-10T14:48:35.709Z,24.87
2019-01-10T14:51:01.591Z,25.62
2019-01-10T14:53:27.473Z,26.29
2019-01-10T14:55:53.364Z,26.67
2019-01-10T14:58:19.674Z,26.34
2019-01-10T15:00:46.248Z,26.38
2019-01-10T15:03:12.153Z,26.04
2019-01-10T15:05:38.029Z,26.44
2019-01-10T15:08:03.919Z,26.48
2019-01-10T15:10:29.793Z,26.82
2019-01-10T15:12:55.649Z,27.01
2019-01-10T15:15:21.527Z,28.42
2019-01-10T15:17:47.393Z,28.76
2019-01-10T15:20:15.873Z,29.14
2019-01-10T15:22:41.746Z,29.91
2019-01-10T15:25:07.626Z,30.43
2019-01-10T15:27:33.488Z,31.95
2019-01-10T15:29:59.385Z,33.20
2019-01-10T15:32:25.239Z,33.99
2019-01-10T15:34:51.130Z,34.48
2019-01-10T15:37:17.006Z,35.32
2019-01-10T15:39:42.895Z,36.09
2019-01-10T15:42:08.781Z,35.80
2019-01-10T15:44:34.661Z,34.73
2019-01-10T15:47:00.498Z,34.81
2019-01-10T15:49:26.392Z,35.05
2019-01-10T15:51:52.278Z,35.16
2019-01-10T15:54:18.148Z,35.73
2019-01-10T15:56:44.008Z,36.17
2019-01-10T15:59:10.009Z,36.17
2019-01-10T16:01:39.432Z,36.24
2019-01-10T16:04:07.476Z,36.07
2019-01-10T16:06:33.306Z,36.51
2019-01-10T16:08:59.225Z,36.56
2019-01-10T16:11:25.071Z,37.17
2019-01-10T16:13:50.933Z,37.18
2019-01-10T16:16:16.805Z,37.07
2019-01-10T16:18:42.703Z,37.49
2019-01-10T16:21:08.744Z,37.93
2019-01-10T16:23:34.646Z,37.51
2019-01-10T16:26:00.495Z,37.51
2019-01-10T16:28:26.377Z,37.67
2019-01-10T16:30:52.265Z,38.29
2019-01-10T16:33:18.115Z,38.22
2019-01-10T16:35:44.047Z,38.23
2019-01-10T16:38:09.920Z,38.28
2019-01-10T16:40:35.820Z,38.26
2019-01-10T16:43:01.754Z,38.42
2019-01-10T16:45:27.580Z,38.92
2019-01-10T16:47:53.449Z,38.88
2019-01-10T16:50:19.311Z,38.87
2019-01-10T16:52:45.207Z,39.23
2019-01-10T16:55:11.869Z,39.32
2019-01-10T16:57:37.746Z,39.34
2019-01-10T17:00:14.241Z,39.09
2019-01-10T17:02:40.791Z,38.70
2019-01-10T17:05:06.676Z,39.43
2019-01-10T17:07:32.552Z,39.43
2019-01-10T17:09:58.414Z,38.83
2019-01-10T17:12:24.281Z,38.88
2019-01-10T17:14:50.271Z,39.09
2019-01-10T17:17:16.170Z,38.28
2019-01-10T17:19:42.057Z,38.61
2019-01-10T17:22:08.132Z,38.84
2019-01-10T17:24:34.056Z,39.54
2019-01-10T17:27:00.027Z,39.63
2019-01-10T17:29:26.169Z,39.97
2019-01-10T17:31:52.355Z,40.43
2019-01-10T17:34:18.372Z,40.81
2019-01-10T17:36:44.310Z,41.00
2019-01-10T17:39:10.334Z,40.36
2019-01-10T17:41:36.347Z,40.33
2019-01-10T17:44:02.435Z,40.11
2019-01-10T17:46:28.382Z,39.25
2019-01-10T17:48:54.628Z,39.28
2019-01-10T17:51:20.753Z,39.38
2019-01-10T17:53:46.648Z,39.89
2019-01-10T17:56:12.873Z,39.50
2019-01-10T17:58:38.747Z,39.00
2019-01-10T18:01:04.905Z,39.00
2019-01-10T18:03:31.739Z,39.51
2019-01-10T18:05:57.664Z,39.24
2019-01-10T18:08:23.568Z,38.74
2019-01-10T18:10:49.445Z,38.90
2019-01-10T18:13:15.333Z,39.23
2019-01-10T18:15:41.458Z,39.42
2019-01-10T18:18:07.289Z,39.65
2019-01-10T18:20:36.153Z,39.43
2019-01-10T18:23:02.033Z,39.36
2019-01-10T18:25:27.911Z,39.72
2019-01-10T18:27:53.832Z,39.47
2019-01-10T18:30:21.512Z,39.58
2019-01-10T18:32:47.402Z,39.35
2019-01-10T18:35:13.598Z,39.66
2019-01-10T18:37:39.469Z,39.51
2019-01-10T18:40:08.064Z,39.36
2019-01-10T18:42:33.910Z,38.41
2019-01-10T18:44:59.792Z,38.85
2019-01-10T18:47:25.670Z,38.84
2019-01-10T18:49:51.625Z,39.03
2019-01-10T18:52:17.480Z,38.75
2019-01-10T18:54:43.384Z,38.63
2019-01-10T18:57:09.272Z,38.45
2019-01-10T18:59:35.177Z,37.99
2019-01-10T19:02:01.182Z,38.34
2019-01-10T19:04:27.392Z,37.88
2019-01-10T19:06:53.261Z,38.01
2019-01-10T19:09:19.124Z,39.15
2019-01-10T19:11:45.050Z,38.55
2019-01-10T19:14:10.914Z,38.57
2019-01-10T19:16:36.777Z,39.19
2019-01-10T19:19:02.668Z,39.54
2019-01-10T19:21:28.640Z,40.19
2019-01-10T19:23:54.495Z,39.95
2019-01-10T19:26:20.359Z,40.25
2019-01-10T19:28:46.273Z,40.38
2019-01-10T19:31:12.144Z,40.46
2019-01-10T19:33:38.003Z,40.78
2019-01-10T19:36:03.978Z,40.33
2019-01-10T19:38:29.861Z,39.97
2019-01-10T19:40:55.759Z,39.77
2019-01-10T19:43:21.741Z,40.21
2019-01-10T19:45:47.846Z,39.46
2019-01-10T19:48:13.723Z,39.84
2019-01-10T19:50:39.595Z,39.95
2019-01-10T19:53:05.489Z,39.91
2019-01-10T19:55:31.672Z,40.32
2019-01-10T19:57:57.537Z,40.44
2019-01-10T20:00:32.683Z,40.41
2019-01-10T20:02:58.688Z,40.64
2019-01-10T20:05:25.528Z,40.63
2019-01-10T20:07:51.405Z,41.01
2019-01-10T20:10:17.439Z,39.91
2019-01-10T20:12:43.341Z,38.78
2019-01-10T20:15:09.303Z,40.27
2019-01-10T20:17:35.160Z,39.77
2019-01-10T20:20:03.332Z,40.22
2019-01-10T20:22:29.313Z,40.46
2019-01-10T20:24:55.209Z,40.36
2019-01-10T20:27:21.289Z,40.70
2019-01-10T20:29:47.353Z,41.00
2019-01-10T20:32:13.353Z,40.63
2019-01-10T20:34:39.288Z,40.31
2019-01-10T20:37:05.268Z,40.00
2019-01-10T20:39:31.124Z,39.95
2019-01-10T20:42:01.842Z,40.19
2019-01-10T20:44:24.808Z,40.10
2019-01-10T20:46:51.179Z,39.73
2019-01-10T20:49:17.534Z,40.10
2019-01-10T20:51:43.656Z,39.71
2019-01-10T20:54:09.580Z,40.32
2019-01-10T20:56:35.452Z,40.54
2019-01-10T20:59:02.373Z,40.62
2019-01-10T21:01:28.294Z,41.42
2019-01-10T21:03:54.203Z,40.55
2019-01-10T21:06:20.472Z,40.34
2019-01-10T21:08:46.623Z,38.16
2019-01-10T21:11:12.467Z,37.78
2019-01-10T21:13:38.490Z,39.23
2019-01-10T21:16:04.469Z,40.40
2019-01-10T21:18:30.353Z,39.02
2019-01-10T21:20:56.320Z,37.75
2019-01-10T21:23:22.387Z,35.70
2019-01-10T21:25:48.262Z,36.21
2019-01-10T21:28:14.176Z,36.94
2019-01-10T21:30:40.042Z,37.08
2019-01-10T21:33:05.971Z,37.58
2019-01-10T21:35:31.862Z,37.61
2019-01-10T21:37:57.723Z,35.81
2019-01-10T21:40:23.697Z,36.02
2019-01-10T21:42:51.510Z,36.58
2019-01-10T21:45:17.865Z,36.00
2019-01-10T21:47:43.681Z,35.92
2019-01-10T21:50:12.753Z,36.66
2019-01-10T21:52:38.851Z,36.65
2019-01-10T21:55:07.526Z,36.43
2019-01-10T21:57:34.332Z,35.23
2019-01-10T22:00:00.248Z,35.47
2019-01-10T22:02:26.149Z,35.96
2019-01-10T22:04:52.217Z,35.85
2019-01-10T22:07:18.884Z,36.08
2019-01-10T22:09:44.872Z,35.63
2019-01-10T22:12:10.868Z,34.52
2019-01-10T22:14:36.712Z,34.52
2019-01-10T22:17:02.796Z,34.49
2019-01-10T22:19:28.671Z,33.84
2019-01-10T22:21:54.559Z,34.51
2019-01-10T22:24:20.445Z,33.62
2019-01-10T22:26:46.463Z,33.42
2019-01-10T22:29:12.269Z,33.14
2019-01-10T22:31:38.156Z,31.45
2019-01-10T22:34:04.107Z,31.30
2019-01-10T22:36:29.965Z,31.75
2019-01-10T22:38:55.940Z,32.38
2019-01-10T22:41:21.840Z,31.03
2019-01-10T22:43:47.710Z,30.36
2019-01-10T22:46:13.584Z,30.21
2019-01-10T22:48:39.557Z,29.48
2019-01-10T22:51:05.421Z,30.02
2019-01-10T22:53:31.318Z,30.28
2019-01-10T22:55:58.193Z,29.74
2019-01-10T22:58:24.059Z,30.67
2019-01-10T23:00:54.935Z,31.20
2019-01-10T23:03:20.830Z,32.03
2019-01-10T23:05:46.749Z,31.41
2019-01-10T23:08:13.389Z,31.84
2019-01-10T23:10:39.350Z,30.91
2019-01-10T23:13:05.327Z,30.37
2019-01-10T23:15:32.795Z,30.97
2019-01-10T23:17:58.799Z,31.82
2019-01-10T23:20:24.683Z,32.36
2019-01-10T23:22:50.668Z,33.01
2019-01-10T23:25:16.550Z,32.75
2019-01-10T23:27:44.034Z,32.71
2019-01-10T23:30:10.414Z,33.42
2019-01-10T23:32:36.323Z,32.90
2019-01-10T23:35:02.506Z,32.61
2019-01-10T23:37:28.476Z,33.26
2019-01-10T23:39:54.534Z,33.79
2019-01-10T23:42:20.547Z,33.35
2019-01-10T23:44:47.795Z,34.44
2019-01-10T23:47:13.797Z,34.92
2019-01-10T23:49:39.663Z,35.37
2019-01-10T23:52:05.562Z,34.97
2019-01-10T23:54:31.433Z,33.66
2019-01-10T23:56:57.284Z,33.94
2019-01-10T23:59:23.262Z,34.76
